createdAt,value
2022-12-18T00:04:27.065Z,-2.42
2022-12-18T00:09:31.373Z,-2.83
2022-12-18T00:14:44.466Z,-1.56
2022-12-18T00:19:47.894Z,1.58
2022-12-18T00:24:51.833Z,2.89
2022-12-18T00:29:55.428Z,1.03
2022-12-18T00:34:59.157Z,-0.69
2022-12-18T00:40:04.308Z,-1.78
2022-12-18T00:45:12.617Z,-1.57
2022-12-18T00:50:17.296Z,2.60
2022-12-18T00:55:21.116Z,3.35
2022-12-18T01:00:25.140Z,0.64
2022-12-18T01:05:29.785Z,-1.14
2022-12-18T01:10:33.511Z,-1.65
2022-12-18T01:15:37.369Z,1.88
2022-12-18T01:20:41.470Z,3.21
2022-12-18T01:25:45.289Z,0.54
2022-12-18T01:30:48.811Z,-1.46
2022-12-18T01:35:52.542Z,-2.23
2022-12-18T01:41:01.670Z,0.58
2022-12-18T01:46:05.563Z,3.21
2022-12-18T01:51:12.732Z,2.30
2022-12-18T02:01:32.255Z,-1.93
2022-12-18T02:06:42.818Z,0.23
2022-12-18T02:12:02.104Z,3.61
2022-12-18T02:17:21.502Z,0.86
2022-12-18T02:22:56.763Z,-0.62
2022-12-18T02:28:07.849Z,2.27
2022-12-18T02:33:14.561Z,0.15
2022-12-18T02:38:19.260Z,-1.40
2022-12-18T02:43:23.231Z,0.58
2022-12-18T02:48:36.435Z,1.24
2022-12-18T02:54:02.434Z,-1.13
2022-12-18T02:59:16.740Z,-1.63
2022-12-18T03:04:55.650Z,2.55
2022-12-18T03:10:01.760Z,2.43
2022-12-18T03:15:28.781Z,-1.00
2022-12-18T03:20:36.660Z,-2.65
2022-12-18T03:25:45.645Z,-2.07
2022-12-18T03:30:57.401Z,1.67
2022-12-18T03:36:01.951Z,0.64
2022-12-18T03:41:21.209Z,-1.91
2022-12-18T03:46:39.653Z,-0.29
2022-12-18T03:52:13.808Z,1.41
2022-12-18T03:57:23.144Z,-1.00
2022-12-18T04:02:27.264Z,-0.72
2022-12-18T04:07:32.159Z,-0.07
2022-12-18T04:12:35.755Z,-1.82
2022-12-18T04:17:49.285Z,0.53
2022-12-18T04:22:54.761Z,-0.45
2022-12-18T04:27:58.584Z,-2.37
2022-12-18T04:33:02.426Z,-0.51
2022-12-18T04:38:09.635Z,-0.64
2022-12-18T04:43:13.628Z,-0.66
2022-12-18T04:48:17.673Z,0.03
2022-12-18T04:53:21.397Z,-1.86
2022-12-18T04:58:25.121Z,-0.02
2022-12-18T05:03:29.096Z,1.09
2022-12-18T05:08:34.738Z,-1.11
2022-12-18T05:13:39.688Z,-0.72
2022-12-18T05:18:43.836Z,1.28
2022-12-18T05:23:47.725Z,2.00
2022-12-18T05:28:51.354Z,-0.14
2022-12-18T05:33:55.481Z,-1.80
2022-12-18T05:38:59.310Z,-0.55
2022-12-18T05:44:03.261Z,2.00
2022-12-18T05:49:07.280Z,2.16
2022-12-18T05:54:11.061Z,-0.08
2022-12-18T05:59:14.912Z,-0.15
2022-12-18T06:04:18.750Z,1.65
2022-12-18T06:14:56.703Z,1.87
2022-12-18T06:20:02.301Z,-0.37
2022-12-18T06:25:07.405Z,-0.42
2022-12-18T06:30:13.637Z,2.09
2022-12-18T06:35:18.155Z,1.37
2022-12-18T06:40:23.004Z,0.18
2022-12-18T06:45:28.312Z,1.63
2022-12-18T06:50:32.599Z,1.67
2022-12-18T06:55:36.396Z,1.98
2022-12-18T07:00:40.279Z,2.00
2022-12-18T07:05:44.056Z,2.31
2022-12-18T07:10:55.795Z,1.75
2022-12-18T07:16:22.611Z,0.62
2022-12-18T07:21:29.128Z,1.63
2022-12-18T07:26:33.263Z,2.31
2022-12-18T07:31:37.135Z,2.43
2022-12-18T07:36:41.296Z,0.86
2022-12-18T07:42:05.403Z,2.03
2022-12-18T07:47:12.189Z,2.52
2022-12-18T07:52:19.263Z,0.54
2022-12-18T07:57:49.579Z,1.81
2022-12-18T08:02:49.666Z,2.72
2022-12-18T08:07:54.819Z,1.33
2022-12-18T08:13:03.121Z,2.72
2022-12-18T08:18:13.893Z,3.55
2022-12-18T08:23:18.515Z,1.66
2022-12-18T08:28:22.767Z,1.41
2022-12-18T08:33:27.521Z,3.89
2022-12-18T08:38:32.963Z,3.36
2022-12-18T08:43:55.842Z,2.84
2022-12-18T08:48:59.862Z,4.68
2022-12-18T08:54:06.351Z,3.82
2022-12-18T08:59:15.906Z,1.83
2022-12-18T09:04:24.064Z,2.74
2022-12-18T09:09:28.382Z,3.77
2022-12-18T09:14:32.301Z,1.75
2022-12-18T09:19:36.339Z,0.88
2022-12-18T09:24:40.770Z,2.68
2022-12-18T09:29:44.694Z,2.15
2022-12-18T09:34:55.245Z,1.05
2022-12-18T09:39:59.826Z,2.67
2022-12-18T09:45:05.475Z,1.67
2022-12-18T09:50:40.709Z,1.10
2022-12-18T09:55:49.093Z,3.37
2022-12-18T10:00:55.320Z,2.94
2022-12-18T10:06:40.417Z,3.29
2022-12-18T10:12:07.941Z,8.02
2022-12-18T10:17:24.440Z,8.52
2022-12-18T10:22:42.471Z,9.23
2022-12-18T10:27:47.550Z,9.41
2022-12-18T10:32:53.044Z,7.97
2022-12-18T10:38:16.279Z,4.84
2022-12-18T10:43:31.968Z,4.27
2022-12-18T10:48:58.431Z,4.86
2022-12-18T10:54:32.453Z,5.97
2022-12-18T10:59:57.126Z,6.98
2022-12-18T11:05:02.169Z,7.73
2022-12-18T11:10:18.537Z,7.84
2022-12-18T11:15:31.938Z,8.20
2022-12-18T11:20:40.405Z,8.59
2022-12-18T11:26:06.533Z,8.93
2022-12-18T11:31:25.601Z,9.15
2022-12-18T11:36:36.175Z,9.53
2022-12-18T11:42:11.596Z,9.40
2022-12-18T11:47:40.064Z,9.94
2022-12-18T11:52:44.192Z,9.96
2022-12-18T11:58:31.901Z,9.97
2022-12-18T12:04:04.957Z,10.12
2022-12-18T12:09:50.746Z,10.11
2022-12-18T12:15:34.528Z,10.08
2022-12-18T12:21:07.740Z,10.19
2022-12-18T12:26:49.898Z,9.62
2022-12-18T12:32:33.083Z,7.67
2022-12-18T12:37:56.369Z,5.60
2022-12-18T12:43:14.356Z,4.35
2022-12-18T12:48:36.770Z,3.53
2022-12-18T12:53:43.033Z,2.62
2022-12-18T12:59:25.025Z,1.74
2022-12-18T13:05:19.354Z,1.59
2022-12-18T13:10:36.754Z,1.79
2022-12-18T13:15:48.342Z,1.86
2022-12-18T13:21:21.974Z,1.91
2022-12-18T13:26:29.185Z,2.23
2022-12-18T13:31:42.643Z,2.07
2022-12-18T13:36:47.864Z,2.02
2022-12-18T13:42:32.508Z,1.41
2022-12-18T13:47:39.476Z,0.54
2022-12-18T13:52:45.043Z,-0.31
2022-12-18T13:57:49.742Z,-1.10
2022-12-18T14:02:53.777Z,-1.48
2022-12-18T14:08:07.210Z,-0.35
2022-12-18T14:13:31.127Z,-1.49
2022-12-18T14:19:02.726Z,-1.94
2022-12-18T14:24:23.792Z,-0.36
2022-12-18T14:29:33.136Z,-1.62
2022-12-18T14:34:36.861Z,-0.85
2022-12-18T14:39:41.370Z,-0.82
2022-12-18T14:45:14.294Z,-0.71
2022-12-18T14:50:17.334Z,-0.24
2022-12-18T14:55:23.992Z,-1.57
2022-12-18T15:00:28.875Z,0.05
2022-12-18T15:05:34.633Z,-1.08
2022-12-18T15:10:49.456Z,0.24
2022-12-18T15:15:57.792Z,-0.43
2022-12-18T15:21:11.695Z,-0.76
2022-12-18T15:26:19.895Z,0.50
2022-12-18T15:31:37.204Z,-0.99
2022-12-18T15:37:04.776Z,-0.13
2022-12-18T15:42:53.587Z,0.20
2022-12-18T15:48:48.426Z,-1.08
2022-12-18T15:53:59.696Z,0.31
2022-12-18T15:59:04.704Z,-0.91
2022-12-18T16:04:15.001Z,0.28
2022-12-18T16:09:36.742Z,-0.42
2022-12-18T16:14:47.319Z,0.18
2022-12-18T16:19:51.785Z,-0.60
2022-12-18T16:25:12.546Z,0.08
2022-12-18T16:30:37.895Z,0.11
2022-12-18T16:41:47.514Z,0.57
2022-12-18T16:46:51.232Z,-0.26
2022-12-18T16:52:13.053Z,-1.06
2022-12-18T16:57:25.331Z,0.67
2022-12-18T17:02:29.709Z,-0.62
2022-12-18T17:07:33.621Z,-0.25
2022-12-18T17:12:39.453Z,0.01
2022-12-18T17:17:46.022Z,0.50
2022-12-18T17:22:49.862Z,-0.80
2022-12-18T17:27:53.721Z,0.06
2022-12-18T17:32:57.628Z,0.18
2022-12-18T17:38:01.620Z,-0.90
2022-12-18T17:43:06.291Z,-0.48
2022-12-18T17:48:11.239Z,-0.45
2022-12-18T17:53:15.425Z,-0.35
2022-12-18T17:58:19.091Z,0.22
2022-12-18T18:03:25.079Z,-0.16
2022-12-18T18:08:32.828Z,-0.70
2022-12-18T18:13:56.534Z,-0.55
2022-12-18T18:19:09.036Z,-0.60
2022-12-18T18:24:16.583Z,0.02
2022-12-18T18:29:26.710Z,-0.90
2022-12-18T18:34:35.795Z,0.15
2022-12-18T18:39:41.403Z,-0.10
2022-12-18T18:44:49.043Z,-0.92
2022-12-18T18:49:54.102Z,0.47
2022-12-18T18:55:12.961Z,-1.54
2022-12-18T19:00:19.123Z,0.18
2022-12-18T19:05:23.475Z,-1.12
2022-12-18T19:10:28.717Z,-1.63
2022-12-18T19:15:34.511Z,-1.15
2022-12-18T19:20:38.741Z,-1.95
2022-12-18T19:25:50.786Z,-0.15
2022-12-18T19:31:08.890Z,-2.02
2022-12-18T19:36:23.676Z,-2.52
2022-12-18T19:41:32.824Z,0.40
2022-12-18T19:46:40.677Z,0.39
2022-12-18T19:51:46.501Z,-2.55
2022-12-18T19:56:50.568Z,-1.82
2022-12-18T20:01:54.977Z,-1.56
2022-12-18T20:06:59.044Z,-3.09
2022-12-18T20:12:04.675Z,-1.11
2022-12-18T20:17:08.677Z,-2.72
2022-12-18T20:22:14.164Z,-3.02
2022-12-18T20:27:19.588Z,-1.84
2022-12-18T20:32:23.954Z,-3.55
2022-12-18T20:37:28.036Z,-2.30
2022-12-18T20:42:35.706Z,-1.87
2022-12-18T20:47:40.059Z,-3.97
2022-12-18T20:52:45.494Z,-3.80
2022-12-18T20:57:49.901Z,-0.92
2022-12-18T21:02:54.034Z,0.38
2022-12-18T21:07:58.299Z,0.52
2022-12-18T21:13:04.565Z,0.35
2022-12-18T21:18:10.717Z,-0.20
2022-12-18T21:23:16.270Z,-0.36
2022-12-18T21:28:21.343Z,0.39
2022-12-18T21:33:24.960Z,0.72
2022-12-18T21:38:28.779Z,1.09
2022-12-18T21:44:01.995Z,1.04
2022-12-18T21:49:08.865Z,0.32
2022-12-18T21:54:13.026Z,0.60
2022-12-18T21:59:28.422Z,0.57
2022-12-18T22:04:32.077Z,0.73
2022-12-18T22:09:36.962Z,-0.02
2022-12-18T22:14:40.539Z,-0.59
2022-12-18T22:19:44.083Z,-0.24
2022-12-18T22:24:47.653Z,0.44
2022-12-18T22:30:06.565Z,0.32
2022-12-18T22:35:15.579Z,-0.08
2022-12-18T22:40:29.637Z,-0.08
2022-12-18T22:45:34.066Z,0.05
2022-12-18T22:50:41.897Z,0.16
2022-12-18T22:55:45.625Z,0.21
2022-12-18T23:00:49.183Z,0.17
2022-12-18T23:05:52.862Z,0.32
2022-12-18T23:10:58.423Z,0.27
2022-12-18T23:16:11.404Z,-0.11
2022-12-18T23:21:20.089Z,0.17
2022-12-18T23:26:26.013Z,0.60
2022-12-18T23:31:36.111Z,0.96
2022-12-18T23:36:43.555Z,1.06
2022-12-18T23:41:49.847Z,0.84
2022-12-18T23:46:53.776Z,0.48
2022-12-18T23:51:57.699Z,0.48
2022-12-18T23:57:02.292Z,0.23
